Time;durP1;ratioP1;P1;durP2;ratioP2;P2;SDS_P1;SDS_P2;PMS_P1;PMS_P2;Temp;Humidity;BMP_temperature;BMP_pressure;BME280_temperature;BME280_humidity;BME280_pressure;Samples;Min_cycle;Max_cycle;Signal;HPM_P1;HPM_P2
2022/03/07 04:41:11;;;;;;;;;;;;;;;1.88;81.12;100263.66;4967351;28;19933;-80
2022/03/07 04:43:37;;;;;;;;;;;;;;;1.81;81.03;100268.03;4973333;28;19925;-80
2022/03/07 04:46:02;;;;;;;;;;;;;;;1.81;80.57;100261.94;4973235;28;19918;-87
2022/03/07 04:48:27;;;;;;;;;;;;;;;1.74;80.32;100266.28;4973319;28;19918;-79
2022/03/07 04:50:53;;;;;;;;;;;;;;;1.65;80.00;100263.66;4973416;28;20384;-79
2022/03/07 04:53:18;;;;;;;;;;;;;;;1.64;80.01;100261.91;4973477;28;19925;-81
2022/03/07 04:55:43;;;;;;;;;;;;;;;1.67;80.09;100268.88;4972081;28;20369;-80
2022/03/07 04:58:09;;;;;;;;;;;;;;;1.57;79.80;100266.25;4973232;28;19957;-80
2022/03/07 05:00:34;;;;;;;;;;;;;;;1.50;79.21;100264.53;4971992;28;19937;-79
2022/03/07 05:02:59;;;;;;;;;;;;;;;1.40;78.83;100262.75;4972994;28;19919;-86
2022/03/07 05:05:24;;;;;;;;;;;;;;;1.34;78.58;100267.94;4973259;28;19922;-86
2022/03/07 05:07:50;;;;;;;;;;;;;;;1.32;78.44;100269.69;4971767;28;19973;-81
2022/03/07 05:10:16;;;;;;;;;;;;;;;1.35;78.50;100270.56;4971716;28;19925;-81
2022/03/07 05:12:41;;;;;;;;;;;;;;;1.21;78.18;100273.16;4972998;28;19918;-80
2022/03/07 05:15:06;;;;;;;;;;;;;;;1.26;78.39;100281.88;4973041;28;20407;-84
2022/03/07 05:17:39;;;;;;;;;;;;;;;1.29;79.77;100280.13;4972889;28;19918;-87
2022/03/07 05:20:05;;;;;;;;;;;;;;;1.32;82.06;100275.78;4972195;28;20377;-86
2022/03/07 05:22:30;;;;;;;;;;;;;;;1.31;83.41;100281.88;4972968;28;19918;-85
2022/03/07 05:24:55;;;;;;;;;;;;;;;1.24;84.37;100280.09;4972001;28;19926;-88
2022/03/07 05:27:21;;;;;;;;;;;;;;;1.18;84.62;100278.38;4972822;28;19926;-80
2022/03/07 05:29:46;;;;;;;;;;;;;;;1.27;84.83;100280.97;4966213;28;20005;-81
2022/03/07 05:32:11;;;;;;;;;;;;;;;1.13;84.57;100279.19;4963415;28;19919;-82
2022/03/07 05:34:36;;;;;;;;;;;;;;;1.12;84.64;100282.66;4986605;28;19922;-81
2022/03/07 05:37:02;;;;;;;;;;;;;;;0.99;84.38;100273.91;4972732;28;20008;-84
2022/03/07 05:39:27;;;;;;;;;;;;;;;0.97;84.68;100279.13;4971543;28;19922;-87
2022/03/07 05:41:52;;;;;;;;;;;;;;;1.01;84.66;100285.25;4977848;28;20373;-81
2022/03/07 05:44:17;;;;;;;;;;;;;;;1.02;84.30;100287.88;4961458;28;20334;-87
2022/03/07 05:46:43;;;;;;;;;;;;;;;0.93;84.07;100287.84;4972654;28;20333;-87
2022/03/07 05:49:09;;;;;;;;;;;;;;;0.93;83.92;100286.97;4962997;28;19977;-81
2022/03/07 05:51:34;;;;;;;;;;;;;;;0.85;83.84;100282.56;4971356;28;19918;-82
2022/03/07 05:53:59;;;;;;;;;;;;;;;0.89;83.55;100280.84;4971413;28;20308;-85
2022/03/07 05:56:25;;;;;;;;;;;;;;;0.86;83.34;100289.56;4966618;28;19919;-81
2022/03/07 09:00:47;;;;;;;;;;;;;;;2.98;100.00;100353.31;5286441;23;19969;-81
2022/03/07 09:03:13;;;;;;;;;;;;;;;3.06;100.00;100351.59;4980542;28;19969;-81
2022/03/07 09:05:38;;;;;;;;;;;;;;;3.12;100.00;100362.91;4981091;28;20387;-84
2022/03/07 09:08:04;;;;;;;;;;;;;;;3.18;100.00;100360.28;4981248;28;19934;-85
2022/03/07 09:10:29;;;;;;;;;;;;;;;3.20;100.00;100359.38;4980672;28;19932;-86
2022/03/07 09:12:54;;;;;;;;;;;;;;;3.23;100.00;100354.13;4981538;28;19965;-82
2022/03/07 09:15:20;;;;;;;;;;;;;;;3.28;100.00;100354.13;4987950;28;19925;-82
2022/03/07 09:17:45;;;;;;;;;;;;;;;3.30;100.00;100360.22;4980732;28;20432;-81
2022/03/07 09:20:13;;;;;;;;;;;;;;;3.39;100.00;100360.19;4978891;28;19918;-81
2022/03/07 09:22:38;;;;;;;;;;;;;;;3.41;100.00;100365.41;4981193;28;19929;-82
2022/03/07 09:25:04;;;;;;;;;;;;;;;3.42;100.00;100367.16;4982189;28;19922;-83
2022/03/07 09:27:29;;;;;;;;;;;;;;;3.51;100.00;100354.03;4978845;28;20033;-82
2022/03/07 09:29:54;;;;;;;;;;;;;;;3.56;100.00;100357.50;4980507;28;19946;-84
2022/03/07 09:32:20;;;;;;;;;;;;;;;3.59;100.00;100364.44;4981714;28;19918;-86
2022/03/07 09:34:45;;;;;;;;;;;;;;;3.61;100.00;100366.19;4981755;28;19926;-84
2022/03/07 09:37:10;;;;;;;;;;;;;;;3.71;100.00;100367.00;4981985;28;19945;-86
2022/03/07 09:39:36;;;;;;;;;;;;;;;2.87;100.00;100371.72;4981325;28;19922;-84
2022/03/07 09:42:02;;;;;;;;;;;;;;;2.36;100.00;100357.78;4982324;28;20365;-85
2022/03/07 09:44:30;;;;;;;;;;;;;;;2.10;97.36;100357.78;4979187;28;20004;-86
2022/03/07 09:46:57;;;;;;;;;;;;;;;1.93;95.09;100358.66;4980249;28;20381;-86
2022/03/07 09:49:22;;;;;;;;;;;;;;;1.81;93.25;100353.41;4981346;28;20020;-86
2022/03/07 09:51:47;;;;;;;;;;;;;;;1.75;91.60;100366.44;4979178;28;20017;-84
2022/03/07 09:54:12;;;;;;;;;;;;;;;1.59;89.82;100362.91;4980633;28;19929;-82
2022/03/07 09:56:38;;;;;;;;;;;;;;;1.51;88.42;100381.16;4982151;28;19924;-82
2022/03/07 09:59:04;;;;;;;;;;;;;;;1.42;87.05;100365.47;4983602;28;19918;-83
2022/03/07 10:01:29;;;;;;;;;;;;;;;1.45;86.10;100365.47;4985327;28;19921;-81
2022/03/07 10:04:04;;;;;;;;;;;;;;;1.34;85.57;100361.94;4985902;28;19922;-83
2022/03/07 10:06:31;;;;;;;;;;;;;;;1.19;84.84;100366.25;4985513;28;19981;-83
2022/03/07 10:08:58;;;;;;;;;;;;;;;1.21;84.59;100366.25;4984417;28;19923;-85
2022/03/07 10:11:24;;;;;;;;;;;;;;;1.12;83.91;100368.81;5000846;28;19993;-83
2022/03/07 10:13:56;;;;;;;;;;;;;;;1.07;83.65;100360.97;4984905;28;19929;-82
2022/03/07 10:16:22;;;;;;;;;;;;;;;1.01;83.56;100360.94;5000004;28;19926;-82
2022/03/07 10:18:51;;;;;;;;;;;;;;;1.02;83.52;100365.28;4984254;28;19922;-81
2022/03/07 10:21:20;;;;;;;;;;;;;;;0.99;82.54;100360.94;4999512;28;19926;-82
2022/03/07 10:23:53;;;;;;;;;;;;;;;0.90;82.26;100366.97;4986108;28;19917;-85
2022/03/07 10:26:18;;;;;;;;;;;;;;;0.98;81.82;100360.94;4999150;28;19922;-84
2022/03/07 10:28:50;;;;;;;;;;;;;;;0.84;81.54;100353.00;4983839;28;20293;-85
2022/03/07 10:31:16;;;;;;;;;;;;;;;0.82;81.62;100353.00;4983139;28;20396;-83
2022/03/07 10:33:41;;;;;;;;;;;;;;;0.82;81.56;100363.44;4985175;28;19922;-85
2022/03/07 10:36:07;;;;;;;;;;;;;;;0.84;81.32;100366.06;4985333;28;19922;-83
2022/03/07 10:38:32;;;;;;;;;;;;;;;0.74;81.39;100359.06;4982478;28;20389;-85
2022/03/07 10:40:57;;;;;;;;;;;;;;;0.78;81.41;100361.66;4983429;28;19918;-82
2022/03/07 10:43:23;;;;;;;;;;;;;;;0.70;81.18;100359.03;4985645;28;20360;-82
2022/03/07 10:45:48;;;;;;;;;;;;;;;0.71;81.35;100349.47;4982850;28;19941;-85
2022/03/07 10:48:14;;;;;;;;;;;;;;;0.64;81.10;100356.38;4982969;28;19922;-81
2022/03/07 10:50:45;;;;;;;;;;;;;;;0.61;81.01;100353.75;4984196;28;19922;-82
2022/03/07 10:53:10;;;;;;;;;;;;;;;0.59;81.14;100360.69;4984389;28;19973;-83
2022/03/07 10:55:36;;;;;;;;;;;;;;;0.53;80.83;100360.66;4984433;28;19922;-84
2022/03/07 10:58:11;;;;;;;;;;;;;;;0.53;80.91;100345.88;4983294;28;19964;-83
2022/03/07 11:00:50;;;;;;;;;;;;;;;0.56;80.88;100346.75;4997045;28;19922;-82
2022/03/07 11:03:20;;;;;;;;;;;;;;;0.50;81.03;100345.84;4998203;28;19922;-82
2022/03/07 11:05:46;;;;;;;;;;;;;;;0.46;81.09;100346.69;4982977;28;19922;-85
2022/03/07 11:08:14;;;;;;;;;;;;;;;0.45;81.24;100339.72;4983358;28;19972;-83
2022/03/07 11:10:44;;;;;;;;;;;;;;;0.43;80.91;100324.91;4982703;28;19921;-83
2022/03/07 11:13:11;;;;;;;;;;;;;;;0.46;80.64;100336.28;4985210;28;19953;-84
2022/03/07 11:15:36;;;;;;;;;;;;;;;0.42;80.54;100336.22;4981844;28;19922;-84
2022/03/07 11:18:01;;;;;;;;;;;;;;;0.44;80.21;100329.28;4983351;28;19929;-82
2022/03/07 11:20:27;;;;;;;;;;;;;;;0.39;79.82;100329.25;4984346;28;19929;-82
2022/03/07 11:22:53;;;;;;;;;;;;;;;0.34;79.92;100321.38;4982084;28;19965;-82
2022/03/07 11:25:18;;;;;;;;;;;;;;;0.33;80.00;100322.25;4984657;28;19925;-82
2022/03/07 11:27:44;;;;;;;;;;;;;;;0.27;80.09;100316.13;4983560;28;19926;-82
2022/03/07 11:30:20;;;;;;;;;;;;;;;0.23;80.16;100309.16;4983013;28;20373;-81
2022/03/07 11:32:46;;;;;;;;;;;;;;;0.27;79.98;100305.69;4982485;28;19984;-83
2022/03/07 11:35:12;;;;;;;;;;;;;;;0.28;79.95;100303.09;4982998;28;20360;-82
2022/03/07 11:37:37;;;;;;;;;;;;;;;0.22;79.94;100310.00;4984249;28;19968;-82
2022/03/07 11:40:34;;;;;;;;;;;;;;;0.25;79.87;100286.56;4984116;28;19922;-82
2022/03/07 11:43:06;;;;;;;;;;;;;;;0.21;79.63;100301.31;4971898;28;19922;-82
2022/03/07 11:45:37;;;;;;;;;;;;;;;0.20;79.27;100298.69;4981868;28;19984;-81
2022/03/07 11:48:11;;;;;;;;;;;;;;;0.13;79.33;100292.56;4982018;28;19922;-82
2022/03/07 11:50:36;;;;;;;;;;;;;;;0.19;79.26;100287.38;4983433;28;19926;-82
2022/03/07 11:53:03;;;;;;;;;;;;;;;0.11;79.33;100289.06;4984234;28;19926;-82
2022/03/07 11:55:28;;;;;;;;;;;;;;;0.13;79.47;100280.41;4981828;28;19926;-81
2022/03/07 11:58:01;;;;;;;;;;;;;;;0.07;79.55;100274.28;4983428;28;20390;-81
2022/03/07 12:00:31;;;;;;;;;;;;;;;0.07;79.72;100272.53;4981779;28;19926;-82
2022/03/07 12:02:58;;;;;;;;;;;;;;;0.07;79.67;100274.28;4982092;28;19926;-81
2022/03/07 12:05:23;;;;;;;;;;;;;;;0.09;79.63;100288.19;4982706;28;19914;-85
2022/03/07 12:07:49;;;;;;;;;;;;;;;0.09;79.57;100269.94;4982290;28;19928;-81
2022/03/07 12:10:15;;;;;;;;;;;;;;;0.06;79.53;100265.56;4998213;28;19918;-81
2022/03/07 12:12:40;;;;;;;;;;;;;;;-0.02;79.41;100268.13;4983731;28;19918;-81
2022/03/07 12:15:07;;;;;;;;;;;;;;;0.06;79.37;100264.72;4979213;28;19932;-82
2022/03/07 12:17:32;;;;;;;;;;;;;;;0.00;79.30;100265.56;4983432;28;20321;-81
2022/03/07 12:19:58;;;;;;;;;;;;;;;0.00;79.29;100257.72;4982541;28;20059;-82
2022/03/07 12:22:24;;;;;;;;;;;;;;;0.04;79.21;100261.22;4983445;28;19917;-82
2022/03/07 12:24:52;;;;;;;;;;;;;;;0.09;78.84;100270.81;4983285;28;20296;-82
2022/03/07 12:27:17;;;;;;;;;;;;;;;0.02;78.61;100265.53;4982417;28;20286;-84
2022/03/07 12:29:43;;;;;;;;;;;;;;;0.02;78.32;100252.50;4980936;28;19925;-82
2022/03/07 12:32:09;;;;;;;;;;;;;;;0.02;78.35;100248.19;4983168;28;20378;-81
2022/03/07 12:34:35;;;;;;;;;;;;;;;-0.04;78.24;100235.97;4997541;28;20416;-84
2022/03/07 12:37:08;;;;;;;;;;;;;;;-0.07;78.38;100242.91;4981564;28;19918;-80
2022/03/07 12:39:46;;;;;;;;;;;;;;;-0.05;78.42;100244.66;4983143;28;19918;-85
2022/03/07 12:42:13;;;;;;;;;;;;;;;-0.07;78.41;100237.69;4996609;28;19922;-82
2022/03/07 12:44:38;;;;;;;;;;;;;;;-0.04;78.61;100232.50;4981703;28;19918;-82
2022/03/07 12:47:05;;;;;;;;;;;;;;;-0.02;77.92;100243.81;4981033;28;19918;-81
2022/03/07 12:49:30;;;;;;;;;;;;;;;-0.01;78.85;100236.00;4982052;28;19928;-82
2022/03/07 12:51:55;;;;;;;;;;;;;;;0.54;83.58;100232.88;4979911;28;20001;-82
2022/03/07 12:54:28;;;;;;;;;;;;;;;0.85;86.86;100221.69;4982617;28;19929;-85
2022/03/07 12:56:53;;;;;;;;;;;;;;;0.92;89.48;100227.81;4982845;28;19921;-82
2022/03/07 12:59:24;;;;;;;;;;;;;;;0.97;91.40;100224.34;4982190;28;20058;-83
2022/03/07 13:01:50;;;;;;;;;;;;;;;1.05;92.63;100211.31;4979671;28;19922;-81
2022/03/07 13:04:17;;;;;;;;;;;;;;;1.18;93.59;100210.50;4996863;28;19922;-84
2022/03/07 13:06:47;;;;;;;;;;;;;;;1.38;94.23;100207.03;4982928;28;20061;-82
2022/03/07 13:09:12;;;;;;;;;;;;;;;1.53;95.34;100200.94;4980200;28;20270;-85
2022/03/07 13:11:41;;;;;;;;;;;;;;;1.65;96.64;100198.34;4982625;28;19940;-83
2022/03/07 13:14:06;;;;;;;;;;;;;;;1.78;98.45;100194.00;4980180;28;19918;-82
2022/03/07 13:16:33;;;;;;;;;;;;;;;1.92;99.55;100183.53;4981089;28;19926;-85
2022/03/07 13:19:06;;;;;;;;;;;;;;;2.03;100.00;100188.72;4982689;28;20700;-82
2022/03/07 13:21:39;;;;;;;;;;;;;;;2.15;100.00;100178.25;4996777;28;19929;-83
2022/03/07 13:24:06;;;;;;;;;;;;;;;2.22;100.00;100172.16;4982803;28;19922;-82
2022/03/07 13:26:32;;;;;;;;;;;;;;;2.26;100.00;100173.00;4981766;28;20289;-83
2022/03/07 13:29:01;;;;;;;;;;;;;;;2.40;100.00;100180.81;4996889;28;19922;-82
2022/03/07 13:31:27;;;;;;;;;;;;;;;2.45;100.00;100174.69;4982200;28;19921;-85
2022/03/07 13:33:57;;;;;;;;;;;;;;;2.54;100.00;100176.41;4984344;28;19926;-87
2022/03/07 13:36:22;;;;;;;;;;;;;;;2.58;100.00;100174.63;4985759;28;19929;-83
2022/03/07 13:38:47;;;;;;;;;;;;;;;2.65;100.00;100171.09;4986239;28;20001;-84
2022/03/07 13:41:12;;;;;;;;;;;;;;;2.64;100.00;100162.41;4984408;28;19984;-82
2022/03/07 13:43:38;;;;;;;;;;;;;;;2.70;100.00;100170.22;4985167;28;19969;-82
2022/03/07 13:46:17;;;;;;;;;;;;;;;2.79;100.00;100169.28;4985112;28;19976;-85
2022/03/07 13:48:42;;;;;;;;;;;;;;;2.83;100.00;100159.69;4985418;28;19917;-82
2022/03/07 13:51:07;;;;;;;;;;;;;;;2.89;100.00;100150.06;4984575;28;19930;-84
2022/03/07 13:53:34;;;;;;;;;;;;;;;2.94;100.00;100159.66;4984878;28;19932;-82
2022/03/07 13:56:00;;;;;;;;;;;;;;;2.94;100.00;100157.88;4984867;28;19940;-82
2022/03/07 13:58:28;;;;;;;;;;;;;;;3.00;100.00;100151.72;4984681;28;19933;-82
2022/03/07 14:01:05;;;;;;;;;;;;;;;3.06;100.00;100152.59;4983691;28;19998;-83
2022/03/07 14:03:30;;;;;;;;;;;;;;;3.10;100.00;100148.19;4984120;28;19976;-82
2022/03/07 14:05:57;;;;;;;;;;;;;;;3.17;100.00;100139.41;4985076;28;19925;-81
2022/03/07 14:08:29;;;;;;;;;;;;;;;3.22;100.00;100157.72;4985431;28;19968;-82
2022/03/07 14:10:58;;;;;;;;;;;;;;;3.29;100.00;100143.69;4984290;28;19926;-81
2022/03/07 14:13:34;;;;;;;;;;;;;;;3.27;100.00;100148.06;4984832;28;19924;-82
2022/03/07 14:15:59;;;;;;;;;;;;;;;3.33;100.00;100145.41;4984441;28;19968;-81
2022/03/07 14:18:26;;;;;;;;;;;;;;;3.38;100.00;100138.41;4986265;28;19922;-82
2022/03/07 14:20:51;;;;;;;;;;;;;;;3.48;100.00;100147.06;4984244;28;19922;-82
2022/03/07 14:23:18;;;;;;;;;;;;;;;3.44;100.00;100140.94;4984210;28;20358;-82
2022/03/07 14:25:44;;;;;;;;;;;;;;;3.49;100.00;100134.81;4984289;28;19920;-81
2022/03/07 14:28:09;;;;;;;;;;;;;;;2.78;100.00;100148.41;4985457;28;20296;-82
2022/03/07 14:30:34;;;;;;;;;;;;;;;2.28;100.00;100138.13;4983662;28;20308;-81
2022/03/07 14:33:00;;;;;;;;;;;;;;;2.06;97.02;100134.72;4985184;28;19922;-82
2022/03/07 14:35:25;;;;;;;;;;;;;;;1.82;94.58;100140.88;4984527;28;20355;-81
2022/03/07 14:37:51;;;;;;;;;;;;;;;1.72;92.65;100141.72;4984850;28;19984;-81
2022/03/07 14:40:17;;;;;;;;;;;;;;;1.70;90.63;100143.50;4980514;28;20467;-83
2022/03/07 14:42:43;;;;;;;;;;;;;;;1.49;88.73;100128.72;4984506;28;19922;-81
2022/03/07 14:45:09;;;;;;;;;;;;;;;1.43;86.56;100130.41;4975600;28;19926;-84
2022/03/07 14:47:35;;;;;;;;;;;;;;;1.43;85.27;100137.41;4990985;28;19926;-82
2022/03/07 14:50:01;;;;;;;;;;;;;;;1.31;84.12;100138.28;4982942;28;19922;-86
2022/03/07 14:52:26;;;;;;;;;;;;;;;1.24;83.10;100134.75;4979107;28;20281;-82
2022/03/07 14:54:52;;;;;;;;;;;;;;;1.19;82.48;100133.03;4980330;28;19933;-83
2022/03/07 14:57:18;;;;;;;;;;;;;;;1.07;81.87;100118.25;4981972;28;20305;-83
2022/03/07 14:59:43;;;;;;;;;;;;;;;1.06;81.80;100117.34;4982205;28;19929;-82
2022/03/07 15:02:09;;;;;;;;;;;;;;;1.01;81.35;100120.84;4980871;28;20054;-81
2022/03/07 15:04:34;;;;;;;;;;;;;;;0.97;80.85;100108.66;4984004;28;19929;-82
2022/03/07 15:07:00;;;;;;;;;;;;;;;0.99;80.35;100113.00;4982762;28;20381;-80
2022/03/07 15:09:25;;;;;;;;;;;;;;;0.84;80.35;100097.31;4984093;28;19918;-82
2022/03/07 15:11:51;;;;;;;;;;;;;;;0.88;80.30;100113.00;4983592;28;19922;-82
2022/03/07 15:14:17;;;;;;;;;;;;;;;0.82;80.12;100107.75;4983333;28;19925;-81
2022/03/07 15:16:43;;;;;;;;;;;;;;;0.84;79.85;100099.94;4984879;28;19922;-86
2022/03/07 15:19:09;;;;;;;;;;;;;;;0.71;79.62;100101.66;4983789;28;19922;-84
2022/03/07 15:21:35;;;;;;;;;;;;;;;0.74;79.34;100103.41;4983654;28;20441;-82
2022/03/07 15:24:01;;;;;;;;;;;;;;;0.70;79.67;100092.97;4983093;28;19941;-82
2022/03/07 15:26:29;;;;;;;;;;;;;;;0.68;79.45;100101.63;4998669;28;20367;-81
2022/03/07 15:28:59;;;;;;;;;;;;;;;0.59;79.69;100102.50;4979357;28;20433;-82
2022/03/07 15:31:25;;;;;;;;;;;;;;;0.60;79.98;100101.63;4996659;28;20025;-81
2022/03/07 15:33:50;;;;;;;;;;;;;;;0.57;79.53;100095.53;4978219;28;19921;-81
2022/03/07 15:36:16;;;;;;;;;;;;;;;0.53;79.60;100105.09;4984151;28;19925;-83
2022/03/07 15:38:41;;;;;;;;;;;;;;;0.54;79.60;100106.81;4983598;28;19928;-81
2022/03/07 15:41:06;;;;;;;;;;;;;;;0.51;79.48;100102.47;4982927;28;19972;-82
2022/03/07 15:43:31;;;;;;;;;;;;;;;0.47;79.50;100107.66;4982209;28;20056;-81
2022/03/07 15:45:57;;;;;;;;;;;;;;;0.48;79.38;100107.69;4995815;28;19922;-83
2022/03/07 15:48:23;;;;;;;;;;;;;;;0.43;79.38;100104.19;4983323;28;20828;-82
2022/03/07 15:50:48;;;;;;;;;;;;;;;0.40;79.32;100114.59;4982149;28;20441;-82
2022/03/07 15:53:13;;;;;;;;;;;;;;;0.45;79.00;100112.88;4980764;28;20021;-82
2022/03/07 15:55:39;;;;;;;;;;;;;;;0.42;79.05;100112.88;4981817;28;19961;-80
2022/03/07 15:58:04;;;;;;;;;;;;;;;0.33;78.72;100112.81;4981551;28;20365;-82
2022/03/07 16:00:29;;;;;;;;;;;;;;;0.40;78.58;100114.59;4976853;28;20072;-84
2022/03/07 16:02:55;;;;;;;;;;;;;;;0.39;78.43;100110.25;4994684;28;19967;-83
2022/03/07 16:05:22;;;;;;;;;;;;;;;0.35;78.59;100111.09;4977031;28;20337;-82
2022/03/07 16:07:47;;;;;;;;;;;;;;;0.33;78.81;100115.44;4983341;28;19918;-81
2022/03/07 16:10:12;;;;;;;;;;;;;;;0.29;78.49;100117.16;4979586;28;19933;-85
2022/03/07 16:12:41;;;;;;;;;;;;;;;0.31;78.83;100119.78;4981146;28;20273;-81
2022/03/07 16:15:07;;;;;;;;;;;;;;;0.34;78.56;100127.59;4980480;28;19968;-82
2022/03/07 16:17:32;;;;;;;;;;;;;;;0.22;78.60;100128.41;4981969;28;19969;-85
2022/03/07 16:19:58;;;;;;;;;;;;;;;0.22;78.57;100130.16;4978233;28;19925;-80
2022/03/07 16:22:23;;;;;;;;;;;;;;;0.24;78.64;100133.63;4981811;28;19922;-84
2022/03/07 16:24:49;;;;;;;;;;;;;;;0.23;78.75;100139.72;4983076;28;19976;-81
2022/03/07 16:27:14;;;;;;;;;;;;;;;0.17;78.89;100128.38;4981654;28;19925;-85
2022/03/07 16:29:39;;;;;;;;;;;;;;;0.13;78.96;100129.25;4982225;28;20376;-82
2022/03/07 16:32:05;;;;;;;;;;;;;;;0.12;78.96;100137.91;4983755;28;20420;-84
2022/03/07 16:34:30;;;;;;;;;;;;;;;0.09;79.00;100130.09;4982084;28;19985;-81
2022/03/07 16:36:55;;;;;;;;;;;;;;;0.04;78.81;100130.94;4979209;28;20376;-80
2022/03/07 16:39:21;;;;;;;;;;;;;;;0.10;79.05;100133.59;4983558;28;19918;-82
2022/03/07 16:41:46;;;;;;;;;;;;;;;0.08;78.83;100133.56;4980459;28;20530;-80
2022/03/07 16:44:11;;;;;;;;;;;;;;;0.13;78.69;100137.06;4979295;28;20365;-81
2022/03/07 16:46:37;;;;;;;;;;;;;;;0.08;78.31;100143.09;4980187;28;19948;-81
2022/03/07 16:49:02;;;;;;;;;;;;;;;0.06;78.12;100137.88;4979720;28;20008;-85
2022/03/07 16:51:27;;;;;;;;;;;;;;;0.03;78.13;100132.66;4980184;28;19926;-80
2022/03/07 16:53:53;;;;;;;;;;;;;;;0.06;78.13;100137.03;4980304;28;20064;-86
2022/03/07 16:56:19;;;;;;;;;;;;;;;0.06;78.08;100127.47;4982129;28;19933;-80
2022/03/07 16:58:46;;;;;;;;;;;;;;;-0.01;77.91;100131.78;4982001;28;19926;-83
2022/03/07 17:01:12;;;;;;;;;;;;;;;-0.01;77.98;100134.38;4978307;28;20023;-81
2022/03/07 17:03:38;;;;;;;;;;;;;;;0.01;77.95;100138.75;4993521;28;19926;-83
2022/03/07 17:06:04;;;;;;;;;;;;;;;0.01;77.83;100131.78;4980024;28;19923;-80
2022/03/07 17:08:29;;;;;;;;;;;;;;;-0.09;77.81;100143.03;4981860;28;20338;-81
2022/03/07 17:10:54;;;;;;;;;;;;;;;-0.09;78.05;100143.03;4978610;28;19932;-81
2022/03/07 17:13:19;;;;;;;;;;;;;;;-0.15;78.01;100125.59;4981132;28;20455;-81
2022/03/07 17:15:45;;;;;;;;;;;;;;;-0.08;78.07;100136.94;4979516;28;19922;-84
2022/03/07 17:18:11;;;;;;;;;;;;;;;0.40;81.73;100139.78;4989200;28;19918;-84
2022/03/07 17:20:37;;;;;;;;;;;;;;;0.69;86.21;100145.13;4981520;28;19972;-85
2022/03/07 17:23:02;;;;;;;;;;;;;;;0.86;89.05;100135.59;4981693;28;20330;-84
2022/03/07 17:25:27;;;;;;;;;;;;;;;0.95;90.97;100133.88;4971789;28;19922;-81
2022/03/07 17:27:53;;;;;;;;;;;;;;;1.04;92.43;100137.38;4981750;28;19914;-85
2022/03/07 17:30:18;;;;;;;;;;;;;;;1.11;93.93;100140.00;4981738;28;20032;-81
2022/03/07 17:32:43;;;;;;;;;;;;;;;1.30;95.17;100143.50;4981401;28;19921;-79
2022/03/07 17:35:09;;;;;;;;;;;;;;;1.44;96.55;100146.97;4981443;28;19925;-83
2022/03/07 17:37:35;;;;;;;;;;;;;;;1.62;97.90;100149.56;4980502;28;20404;-82
2022/03/07 17:40:01;;;;;;;;;;;;;;;1.74;99.19;100153.03;4981155;28;19930;-81
2022/03/07 17:42:26;;;;;;;;;;;;;;;1.88;100.00;100159.13;4979277;28;19972;-83
2022/03/07 17:44:52;;;;;;;;;;;;;;;1.95;100.00;100160.88;4981736;28;19921;-81
2022/03/07 17:47:17;;;;;;;;;;;;;;;2.14;100.00;100158.22;4979892;28;19961;-81
2022/03/07 17:49:42;;;;;;;;;;;;;;;2.24;100.00;100164.31;4981610;28;20310;-82
2022/03/07 17:52:08;;;;;;;;;;;;;;;2.33;100.00;100161.63;4982218;28;19918;-82
2022/03/07 17:54:33;;;;;;;;;;;;;;;2.41;100.00;100167.72;4980079;28;20372;-84
2022/03/07 17:57:00;;;;;;;;;;;;;;;2.45;100.00;100168.59;4980735;28;20396;-85
2022/03/07 17:59:25;;;;;;;;;;;;;;;2.51;100.00;100171.19;4979878;28;20484;-85
2022/03/07 18:01:50;;;;;;;;;;;;;;;2.54;100.00;100172.03;4980466;28;20017;-86
2022/03/07 18:04:16;;;;;;;;;;;;;;;2.63;100.00;100168.53;4981140;28;19953;-82
2022/03/07 18:06:42;;;;;;;;;;;;;;;2.69;100.00;100167.59;4981279;28;20281;-86
2022/03/07 18:09:10;;;;;;;;;;;;;;;2.73;100.00;100167.59;4981006;28;19918;-81
2022/03/07 18:11:36;;;;;;;;;;;;;;;2.79;100.00;100166.69;4981182;28;19925;-83
2022/03/07 18:14:01;;;;;;;;;;;;;;;2.85;100.00;100174.50;4980682;28;20324;-82
2022/03/07 18:16:26;;;;;;;;;;;;;;;2.90;100.00;100177.09;4979967;28;19928;-85
2022/03/07 18:18:52;;;;;;;;;;;;;;;2.98;100.00;100177.06;4982345;28;19929;-81
2022/03/07 18:21:17;;;;;;;;;;;;;;;3.02;100.00;100184.03;4984568;28;19929;-81
2022/03/07 18:23:42;;;;;;;;;;;;;;;3.07;100.00;100188.34;4986702;28;19924;-84
2022/03/07 18:26:07;;;;;;;;;;;;;;;3.09;100.00;100186.63;4984383;28;19924;-83
2022/03/07 18:28:33;;;;;;;;;;;;;;;3.14;100.00;100190.94;4978718;28;20052;-81
2022/03/07 18:30:58;;;;;;;;;;;;;;;3.19;100.00;100197.00;4982336;28;19922;-86
2022/03/07 18:33:23;;;;;;;;;;;;;;;3.26;100.00;100189.09;4985228;28;20403;-85
2022/03/07 18:35:49;;;;;;;;;;;;;;;3.30;100.00;100192.56;4985065;28;19968;-84
2022/03/07 18:38:14;;;;;;;;;;;;;;;3.34;100.00;100189.06;4983327;28;19933;-84
2022/03/07 18:40:40;;;;;;;;;;;;;;;3.33;100.00;100186.44;4985252;28;19972;-81
2022/03/07 18:43:07;;;;;;;;;;;;;;;3.39;100.00;100181.16;4983932;28;19922;-81
2022/03/07 18:45:32;;;;;;;;;;;;;;;3.40;100.00;100186.41;4983914;28;19973;-82
2022/03/07 18:47:57;;;;;;;;;;;;;;;3.45;100.00;100170.66;4978775;28;19972;-80
2022/03/07 18:50:23;;;;;;;;;;;;;;;3.52;100.00;100182.81;4980914;28;19926;-83
2022/03/07 18:52:53;;;;;;;;;;;;;;;3.54;100.00;100188.03;4981645;28;19925;-86
2022/03/07 18:55:20;;;;;;;;;;;;;;;3.56;100.00;100191.53;4983369;28;19933;-84
2022/03/07 18:57:46;;;;;;;;;;;;;;;3.56;100.00;100195.03;4982705;28;19922;-87
2022/03/07 19:00:13;;;;;;;;;;;;;;;3.66;100.00;100189.72;4985883;28;20061;-82
2022/03/07 19:02:39;;;;;;;;;;;;;;;3.65;100.00;100188.81;4990683;28;20385;-84
2022/03/07 19:05:05;;;;;;;;;;;;;;;3.68;100.00;100185.31;4981524;28;19925;-82
2022/03/07 19:07:30;;;;;;;;;;;;;;;2.86;100.00;100197.19;4983255;28;19972;-86
2022/03/07 19:09:55;;;;;;;;;;;;;;;2.38;99.63;100196.50;4982611;28;19945;-83
2022/03/07 19:12:20;;;;;;;;;;;;;;;2.15;96.82;100199.16;4983482;28;20000;-83
2022/03/07 19:14:46;;;;;;;;;;;;;;;2.03;94.83;100194.84;4982541;28;19921;-86
2022/03/07 19:17:11;;;;;;;;;;;;;;;1.90;92.54;100198.31;4984877;28;20010;-80
2022/03/07 19:19:36;;;;;;;;;;;;;;;1.83;90.96;100200.06;4973990;28;19929;-86
2022/03/07 19:22:02;;;;;;;;;;;;;;;1.70;89.39;100200.97;4982568;28;19925;-86
2022/03/07 19:24:27;;;;;;;;;;;;;;;1.62;87.35;100190.50;4984752;28;19976;-84
2022/03/07 19:26:52;;;;;;;;;;;;;;;1.56;86.14;100199.19;4983315;28;19929;-86
2022/03/07 19:29:17;;;;;;;;;;;;;;;1.42;84.97;100194.00;4982448;28;19971;-80
2022/03/07 19:31:43;;;;;;;;;;;;;;;1.40;84.10;100189.63;4977726;28;19922;-82
2022/03/07 19:34:08;;;;;;;;;;;;;;;1.31;83.37;100200.94;4982186;28;19922;-82
2022/03/07 19:36:34;;;;;;;;;;;;;;;1.25;82.76;100199.19;4984183;28;20486;-85
2022/03/07 19:38:59;;;;;;;;;;;;;;;1.13;82.36;100200.91;4984157;28;19929;-86
2022/03/07 19:41:24;;;;;;;;;;;;;;;1.11;82.21;100198.28;4978650;28;20326;-86
2022/03/07 19:43:50;;;;;;;;;;;;;;;1.07;81.73;100200.03;4984210;28;19929;-82
2022/03/07 19:46:15;;;;;;;;;;;;;;;1.09;81.46;100205.25;4982930;28;19965;-86
2022/03/07 19:48:41;;;;;;;;;;;;;;;1.00;81.31;100211.28;4983427;28;20380;-80
2022/03/07 19:51:07;;;;;;;;;;;;;;;0.96;80.81;100213.88;4981871;28;20016;-80
2022/03/07 19:53:32;;;;;;;;;;;;;;;0.96;80.80;100216.50;4980805;28;19929;-80
2022/03/07 19:55:58;;;;;;;;;;;;;;;0.89;80.66;100218.22;4982627;28;20013;-85
2022/03/07 19:58:24;;;;;;;;;;;;;;;0.87;80.29;100215.59;4983866;28;20017;-81
2022/03/07 20:00:49;;;;;;;;;;;;;;;0.79;80.32;100219.94;4982505;28;20278;-80
2022/03/07 20:03:14;;;;;;;;;;;;;;;0.84;80.20;100218.19;4982314;28;19930;-80
2022/03/07 20:05:40;;;;;;;;;;;;;;;0.79;79.87;100219.94;4982276;28;19922;-84
2022/03/07 20:08:05;;;;;;;;;;;;;;;0.76;79.85;100221.66;4982485;28;20013;-83
2022/03/07 20:10:31;;;;;;;;;;;;;;;0.74;79.73;100228.63;4982926;28;19984;-84
2022/03/07 20:12:56;;;;;;;;;;;;;;;0.69;79.79;100224.25;4981808;28;20361;-86
2022/03/07 20:15:21;;;;;;;;;;;;;;;0.65;79.58;100229.44;4976443;28;19926;-85
2022/03/07 20:17:47;;;;;;;;;;;;;;;0.64;79.67;100232.91;4983308;28;19918;-84
2022/03/07 20:20:12;;;;;;;;;;;;;;;0.63;79.43;100231.16;4981972;28;19961;-84